createdAt,value
2018-06-09T00:00:37.601Z,0.00
2018-06-09T00:01:37.813Z,0.00
2018-06-09T00:02:37.979Z,0.00
2018-06-09T00:03:38.153Z,0.00
2018-06-09T00:04:38.358Z,0.00
2018-06-09T00:05:38.529Z,0.00
2018-06-09T00:06:38.718Z,0.00
2018-06-09T00:07:38.896Z,0.00
2018-06-09T00:08:39.084Z,0.00
2018-06-09T00:09:39.272Z,0.00
2018-06-09T00:11:00.245Z,0.00
2018-06-09T00:11:59.946Z,0.00
2018-06-09T00:13:00.155Z,0.00
2018-06-09T00:14:00.382Z,0.00
2018-06-09T00:15:00.469Z,0.00
2018-06-09T00:16:00.652Z,0.00
2018-06-09T00:17:00.824Z,0.00
2018-06-09T00:18:01.010Z,0.00
2018-06-09T00:19:01.197Z,0.00
2018-06-09T00:20:01.411Z,0.00
2018-06-09T00:21:01.562Z,0.00
2018-06-09T00:22:01.742Z,0.00
2018-06-09T00:23:01.926Z,0.00
2018-06-09T00:24:02.123Z,0.00
2018-06-09T00:25:02.292Z,0.00
2018-06-09T00:26:02.472Z,0.00
2018-06-09T00:27:02.670Z,0.00
2018-06-09T00:28:02.857Z,0.00
2018-06-09T00:29:03.044Z,0.00
2018-06-09T00:30:03.230Z,0.00
2018-06-09T00:31:03.411Z,0.00
2018-06-09T00:32:03.591Z,0.00
2018-06-09T00:33:03.810Z,0.00
2018-06-09T00:34:03.962Z,0.00
2018-06-09T00:35:04.150Z,0.00
2018-06-09T00:36:04.337Z,0.00
2018-06-09T00:37:04.523Z,0.00
2018-06-09T00:38:04.703Z,0.00
2018-06-09T00:39:04.899Z,0.00
2018-06-09T00:40:05.059Z,0.00
2018-06-09T00:41:05.252Z,0.00
2018-06-09T00:42:05.426Z,0.00
2018-06-09T00:43:05.613Z,0.00
2018-06-09T00:44:05.785Z,0.00
2018-06-09T00:45:05.972Z,0.00
2018-06-09T00:46:06.167Z,0.00
2018-06-09T00:47:06.336Z,0.00
2018-06-09T00:48:06.523Z,0.00
2018-06-09T00:49:06.710Z,0.00
2018-06-09T00:50:06.904Z,0.00
2018-06-09T00:51:07.080Z,0.00
2018-06-09T00:52:07.260Z,0.00
2018-06-09T00:53:07.444Z,0.00
2018-06-09T00:54:07.632Z,0.00
2018-06-09T00:55:07.806Z,0.00
2018-06-09T00:56:07.990Z,0.00
2018-06-09T00:57:08.180Z,0.00
2018-06-09T00:58:08.388Z,0.00
2018-06-09T00:59:08.551Z,0.00
2018-06-09T01:00:08.743Z,0.00
2018-06-09T01:01:08.929Z,0.00
2018-06-09T01:02:09.113Z,0.00
2018-06-09T01:03:09.303Z,0.00
2018-06-09T01:04:09.495Z,0.00
2018-06-09T01:05:09.671Z,0.00
2018-06-09T01:06:09.853Z,0.00
2018-06-09T01:07:10.042Z,0.00
2018-06-09T01:08:10.233Z,0.00
2018-06-09T01:09:10.433Z,0.00
2018-06-09T01:10:10.592Z,0.00
2018-06-09T01:11:10.793Z,0.00
2018-06-09T01:12:10.973Z,0.00
2018-06-09T01:13:11.160Z,0.00
2018-06-09T01:14:11.341Z,0.00
2018-06-09T01:15:11.522Z,0.00
2018-06-09T01:16:11.711Z,0.00
2018-06-09T01:17:11.899Z,0.00
2018-06-09T01:18:12.084Z,0.00
2018-06-09T01:19:12.267Z,0.00
2018-06-09T01:20:12.456Z,0.00
2018-06-09T01:21:12.685Z,0.00
2018-06-09T01:22:12.819Z,0.00
2018-06-09T01:23:13.011Z,0.00
2018-06-09T01:24:13.194Z,0.00
2018-06-09T01:25:13.395Z,0.00
2018-06-09T01:26:13.569Z,0.00
2018-06-09T01:27:13.753Z,0.00
2018-06-09T01:28:13.940Z,0.00
2018-06-09T01:29:14.120Z,0.00
2018-06-09T01:30:14.322Z,0.00
2018-06-09T01:31:14.508Z,0.00
2018-06-09T01:32:14.699Z,0.00
2018-06-09T01:33:14.881Z,0.00
2018-06-09T01:34:15.074Z,0.00
2018-06-09T01:35:15.286Z,0.00
2018-06-09T01:36:15.458Z,0.00
2018-06-09T01:37:15.627Z,0.00
2018-06-09T01:38:15.817Z,0.00
2018-06-09T01:39:16.008Z,0.00
2018-06-09T01:40:16.195Z,0.00
2018-06-09T01:41:16.375Z,0.00
2018-06-09T01:42:16.580Z,0.00
2018-06-09T01:43:16.745Z,0.00
2018-06-09T01:44:16.919Z,0.00
2018-06-09T01:45:17.106Z,0.00
2018-06-09T01:46:17.287Z,0.00
2018-06-09T01:47:17.459Z,0.00
2018-06-09T01:48:17.669Z,0.00
2018-06-09T01:49:17.853Z,0.00
2018-06-09T01:50:18.032Z,0.00
2018-06-09T01:51:18.221Z,0.00
2018-06-09T01:52:18.424Z,0.00
2018-06-09T01:53:18.588Z,0.00
2018-06-09T01:54:18.776Z,0.00
2018-06-09T01:55:18.983Z,0.00
2018-06-09T01:56:19.157Z,0.00
2018-06-09T01:57:19.310Z,0.00
2018-06-09T01:58:19.501Z,0.00
2018-06-09T01:59:19.694Z,0.00
2018-06-09T02:00:19.879Z,0.00
2018-06-09T02:01:20.062Z,0.00
2018-06-09T02:02:20.251Z,0.00
2018-06-09T02:03:20.440Z,0.00
2018-06-09T02:04:20.644Z,0.00
2018-06-09T02:05:20.811Z,0.00
2018-06-09T02:06:21.002Z,0.00
2018-06-09T02:07:21.196Z,0.00
2018-06-09T02:08:21.369Z,0.00
2018-06-09T02:09:21.557Z,0.00
2018-06-09T02:10:21.742Z,0.00
2018-06-09T02:11:21.929Z,0.00
2018-06-09T02:12:22.110Z,0.00
2018-06-09T02:13:22.320Z,0.00
2018-06-09T02:14:22.472Z,0.00
2018-06-09T02:15:22.664Z,0.00
2018-06-09T02:16:22.853Z,0.00
2018-06-09T02:17:23.045Z,0.00
2018-06-09T02:18:23.228Z,0.00
2018-06-09T02:19:23.417Z,0.00
2018-06-09T02:20:23.606Z,0.00
2018-06-09T02:21:23.800Z,0.00
2018-06-09T02:22:23.981Z,0.00
2018-06-09T02:23:24.167Z,0.00
2018-06-09T02:24:24.369Z,0.00
2018-06-09T02:25:24.532Z,4.00
2018-06-09T02:26:24.718Z,4.00
2018-06-09T02:27:24.935Z,4.00
2018-06-09T02:28:25.116Z,0.00
2018-06-09T02:29:25.269Z,0.00
2018-06-09T02:30:25.450Z,4.00
2018-06-09T02:31:25.662Z,4.00
2018-06-09T02:32:25.867Z,4.00
2018-06-09T02:33:26.034Z,4.00
2018-06-09T02:34:26.224Z,4.00
2018-06-09T02:35:26.418Z,8.00
2018-06-09T02:36:26.593Z,4.00
2018-06-09T02:37:26.783Z,8.00
2018-06-09T02:38:26.961Z,4.00
2018-06-09T02:39:27.159Z,8.00
2018-06-09T02:40:27.354Z,8.00
2018-06-09T02:41:27.544Z,12.00
2018-06-09T02:42:27.728Z,12.00
2018-06-09T02:43:27.906Z,12.00
2018-06-09T02:44:28.106Z,12.00
2018-06-09T02:45:28.279Z,16.00
2018-06-09T02:46:28.464Z,16.00
2018-06-09T02:47:28.644Z,20.00
2018-06-09T02:48:28.825Z,20.00
2018-06-09T02:49:29.007Z,24.00
2018-06-09T02:50:29.182Z,28.00
2018-06-09T02:51:29.375Z,28.00
2018-06-09T02:52:29.561Z,32.00
2018-06-09T02:53:29.770Z,32.00
2018-06-09T02:54:29.935Z,40.00
2018-06-09T02:55:30.123Z,44.00
2018-06-09T02:56:30.314Z,44.00
2018-06-09T02:57:30.480Z,48.00
2018-06-09T02:58:30.660Z,56.00
2018-06-09T02:59:30.853Z,60.00
2018-06-09T03:00:31.033Z,68.00
2018-06-09T03:01:31.212Z,80.00
2018-06-09T03:02:31.408Z,92.00
2018-06-09T03:03:31.607Z,108.00
2018-06-09T03:04:31.762Z,124.00
2018-06-09T03:05:31.943Z,140.00
2018-06-09T03:06:32.133Z,152.00
2018-06-09T03:07:32.306Z,164.00
2018-06-09T03:08:32.488Z,180.00
2018-06-09T03:09:32.671Z,192.00
2018-06-09T03:10:32.842Z,208.00
2018-06-09T03:11:33.023Z,220.00
2018-06-09T03:12:33.217Z,236.00
2018-06-09T03:13:33.385Z,248.00
2018-06-09T03:14:33.661Z,264.00
2018-06-09T03:15:33.775Z,284.00
2018-06-09T03:16:33.968Z,304.00
2018-06-09T03:17:34.145Z,328.00
2018-06-09T03:18:34.333Z,356.00
2018-06-09T03:19:34.523Z,388.00
2018-06-09T03:20:34.707Z,428.00
2018-06-09T03:21:34.889Z,468.00
2018-06-09T03:22:35.073Z,516.00
2018-06-09T03:23:35.257Z,564.00
2018-06-09T03:24:35.463Z,612.00
2018-06-09T03:25:35.635Z,664.00
2018-06-09T03:26:35.825Z,712.00
2018-06-09T03:27:36.014Z,768.00
2018-06-09T03:28:36.203Z,820.00
2018-06-09T03:29:36.410Z,876.00
2018-06-09T03:30:36.579Z,932.00
2018-06-09T03:31:36.753Z,988.00
2018-06-09T03:32:36.951Z,1044.00
2018-06-09T03:33:37.115Z,1096.00
2018-06-09T03:34:37.307Z,1156.00
2018-06-09T03:35:37.482Z,1220.00
2018-06-09T03:36:37.668Z,1292.00
2018-06-09T03:37:37.857Z,1360.00
2018-06-09T03:38:38.044Z,1440.00
2018-06-09T03:39:38.232Z,1520.00
2018-06-09T03:40:38.416Z,1596.00
2018-06-09T03:41:38.600Z,1672.00
2018-06-09T03:42:38.777Z,1744.00
2018-06-09T03:43:38.992Z,1820.00
2018-06-09T03:44:39.167Z,1896.00
2018-06-09T03:45:39.335Z,1964.00
2018-06-09T03:46:39.522Z,2016.00
2018-06-09T03:47:39.714Z,2064.00
2018-06-09T03:48:39.901Z,2156.00
2018-06-09T03:49:40.097Z,2288.00
2018-06-09T03:50:40.291Z,2400.00
2018-06-09T03:51:40.453Z,2536.00
2018-06-09T03:52:40.645Z,2632.00
2018-06-09T03:53:40.827Z,2716.00
2018-06-09T03:54:41.008Z,2808.00
2018-06-09T03:55:41.198Z,2892.00
2018-06-09T03:56:41.383Z,2920.00
2018-06-09T03:57:41.569Z,2992.00
2018-06-09T03:58:41.759Z,3096.00
2018-06-09T03:59:41.951Z,3024.00
2018-06-09T04:00:42.139Z,2708.00
2018-06-09T04:01:42.324Z,2428.00
2018-06-09T04:02:42.512Z,2196.00
2018-06-09T04:03:42.691Z,2092.00
2018-06-09T04:04:42.879Z,1964.00
2018-06-09T04:05:43.084Z,1928.00
2018-06-09T04:06:43.245Z,1952.00
2018-06-09T04:07:43.425Z,1984.00
2018-06-09T04:08:43.607Z,2148.00
2018-06-09T04:09:43.790Z,2380.00
2018-06-09T04:10:43.999Z,2524.00
2018-06-09T04:11:44.169Z,2612.00
2018-06-09T04:12:44.356Z,2664.00
2018-06-09T04:13:44.531Z,2768.00
2018-06-09T04:14:44.717Z,2684.00
2018-06-09T04:15:44.903Z,2688.00
2018-06-09T04:16:45.081Z,2596.00
2018-06-09T04:17:45.265Z,2416.00
2018-06-09T04:18:45.446Z,2508.00
2018-06-09T04:19:45.648Z,2568.00
2018-06-09T04:20:45.832Z,2564.00
2018-06-09T04:21:46.018Z,2544.00
2018-06-09T04:22:46.205Z,2644.00
2018-06-09T04:23:46.395Z,2732.00
2018-06-09T04:24:46.581Z,2780.00
2018-06-09T04:25:46.769Z,2780.00
2018-06-09T04:26:46.954Z,2760.00
2018-06-09T04:27:47.151Z,2928.00
2018-06-09T04:28:47.323Z,3240.00
2018-06-09T04:29:47.507Z,3592.00
2018-06-09T04:30:47.696Z,4128.00
2018-06-09T04:31:47.890Z,4736.00
2018-06-09T04:32:48.074Z,5156.00
2018-06-09T04:33:48.258Z,5128.00
2018-06-09T04:34:48.445Z,4924.00
2018-06-09T04:35:48.635Z,4808.00
2018-06-09T04:36:48.818Z,4612.00
2018-06-09T04:37:49.004Z,4168.00
2018-06-09T04:38:49.183Z,4360.00
2018-06-09T04:39:49.406Z,5056.00
2018-06-09T04:40:49.561Z,4940.00
2018-06-09T04:41:49.748Z,4796.00
2018-06-09T04:42:49.937Z,4556.00
2018-06-09T04:43:50.129Z,4980.00
2018-06-09T04:44:50.336Z,5720.00
2018-06-09T04:45:50.489Z,8016.00
2018-06-09T04:46:50.684Z,10404.00
2018-06-09T04:47:50.885Z,6892.00
2018-06-09T04:48:51.039Z,5584.00
2018-06-09T04:49:51.232Z,4868.00
2018-06-09T04:50:51.408Z,4188.00
2018-06-09T04:51:51.588Z,3808.00
2018-06-09T04:52:51.774Z,3928.00
2018-06-09T04:53:51.966Z,4220.00
2018-06-09T04:54:52.159Z,5272.00
2018-06-09T04:55:52.344Z,7656.00
2018-06-09T04:56:52.544Z,7072.00
2018-06-09T04:57:52.717Z,5644.00
2018-06-09T04:58:52.896Z,4112.00
2018-06-09T04:59:53.088Z,3856.00
2018-06-09T05:00:53.271Z,4108.00
2018-06-09T05:01:53.470Z,5004.00
2018-06-09T05:02:53.659Z,6532.00
2018-06-09T05:03:53.849Z,8052.00
2018-06-09T05:04:54.061Z,8876.00
2018-06-09T05:05:54.229Z,10872.00
2018-06-09T05:06:54.419Z,14336.00
2018-06-09T05:07:54.610Z,15488.00
2018-06-09T05:08:54.786Z,18592.00
2018-06-09T05:09:54.978Z,21344.00
2018-06-09T05:10:55.191Z,21056.00
2018-06-09T05:11:55.341Z,20992.00
2018-06-09T05:12:55.542Z,23136.00
2018-06-09T05:13:55.705Z,25504.00
2018-06-09T05:14:55.898Z,15936.00
2018-06-09T05:15:56.094Z,9804.00
2018-06-09T05:16:56.274Z,8236.00
2018-06-09T05:17:56.488Z,7448.00
2018-06-09T05:18:56.660Z,7196.00
2018-06-09T05:19:56.867Z,7236.00
2018-06-09T05:20:57.040Z,7716.00
2018-06-09T05:21:57.236Z,8600.00
2018-06-09T05:22:57.420Z,9588.00
2018-06-09T05:23:57.604Z,10852.00
2018-06-09T05:24:57.795Z,18560.00
2018-06-09T05:25:57.977Z,13264.00
2018-06-09T05:26:58.164Z,11676.00
2018-06-09T05:27:58.393Z,11248.00
2018-06-09T05:28:58.544Z,10584.00
2018-06-09T05:29:58.726Z,9548.00
2018-06-09T05:30:58.915Z,8808.00
2018-06-09T05:31:59.102Z,8396.00
2018-06-09T05:32:59.286Z,8156.00
2018-06-09T05:33:59.471Z,8260.00
2018-06-09T05:34:59.663Z,9064.00
2018-06-09T05:35:59.853Z,9256.00
2018-06-09T05:37:00.043Z,9576.00
2018-06-09T05:38:00.229Z,9172.00
2018-06-09T05:39:00.422Z,9160.00
2018-06-09T05:40:00.610Z,9240.00
2018-06-09T05:41:00.792Z,9856.00
2018-06-09T05:42:00.974Z,13260.00
2018-06-09T05:43:01.156Z,16768.00
2018-06-09T05:44:01.353Z,15808.00
2018-06-09T05:45:01.540Z,12648.00
2018-06-09T05:46:01.728Z,11772.00
2018-06-09T05:47:01.919Z,10628.00
2018-06-09T05:48:02.097Z,12380.00
2018-06-09T05:49:02.287Z,15936.00
2018-06-09T05:50:02.500Z,21152.00
2018-06-09T05:51:02.672Z,26816.00
2018-06-09T05:52:02.858Z,16384.00
2018-06-09T05:53:03.036Z,19200.00
2018-06-09T05:54:03.261Z,14784.00
2018-06-09T05:55:03.449Z,15448.00
2018-06-09T05:56:03.608Z,19712.00
2018-06-09T05:57:03.794Z,37632.00
2018-06-09T05:58:03.965Z,46112.00
2018-06-09T05:59:04.173Z,22688.00
2018-06-09T06:00:04.352Z,13804.00
2018-06-09T06:01:04.540Z,12388.00
2018-06-09T06:02:04.733Z,14788.00
2018-06-09T06:03:04.952Z,15520.00
2018-06-09T06:04:05.110Z,13652.00
2018-06-09T06:05:05.305Z,17120.00
2018-06-09T06:06:05.496Z,19840.00
2018-06-09T06:07:05.682Z,16064.00
2018-06-09T06:08:05.876Z,13804.00
2018-06-09T06:09:06.068Z,14016.00
2018-06-09T06:10:06.252Z,14092.00
2018-06-09T06:11:06.451Z,13984.00
2018-06-09T06:12:06.634Z,13692.00
2018-06-09T06:13:06.842Z,17152.00
2018-06-09T06:14:07.019Z,15936.00
2018-06-09T06:15:07.214Z,27968.00
2018-06-09T06:16:07.405Z,42816.00
2018-06-09T06:17:07.611Z,45152.00
2018-06-09T06:18:07.820Z,47168.00
2018-06-09T06:19:08.015Z,38208.00
2018-06-09T06:20:08.197Z,31200.00
2018-06-09T06:21:08.391Z,20352.00
2018-06-09T06:22:08.584Z,13992.00
2018-06-09T06:23:08.783Z,12448.00
2018-06-09T06:24:08.976Z,13592.00
2018-06-09T06:25:09.174Z,13200.00
2018-06-09T06:26:09.361Z,13776.00
2018-06-09T06:27:09.572Z,19552.00
2018-06-09T06:28:09.739Z,26368.00
2018-06-09T06:29:09.930Z,27040.00
2018-06-09T06:30:10.120Z,23712.00
2018-06-09T06:31:10.319Z,30848.00
2018-06-09T06:32:10.512Z,22464.00
2018-06-09T06:33:10.699Z,16736.00
2018-06-09T06:34:10.892Z,19264.00
2018-06-09T06:35:11.080Z,22624.00
2018-06-09T06:36:11.277Z,29984.00
2018-06-09T06:37:11.462Z,28448.00
2018-06-09T06:38:11.656Z,25152.00
2018-06-09T06:39:11.847Z,23904.00
2018-06-09T06:40:12.050Z,18240.00
2018-06-09T06:41:12.239Z,26816.00
2018-06-09T06:42:12.422Z,40544.00
2018-06-09T06:43:12.624Z,49856.00
2018-06-09T06:44:12.821Z,58144.00
2018-06-09T06:45:13.013Z,38976.00
2018-06-09T06:46:13.202Z,19488.00
2018-06-09T06:47:13.424Z,11728.00
2018-06-09T06:48:13.589Z,11460.00
2018-06-09T06:49:13.784Z,11192.00
2018-06-09T06:50:14.024Z,10708.00
2018-06-09T06:51:14.174Z,10544.00
2018-06-09T06:52:14.364Z,10360.00
2018-06-09T06:53:14.558Z,10616.00
2018-06-09T06:54:14.750Z,10968.00
2018-06-09T06:55:14.985Z,11568.00
2018-06-09T06:56:15.141Z,11672.00
2018-06-09T06:57:15.314Z,13880.00
2018-06-09T06:58:15.509Z,12384.00
2018-06-09T06:59:15.703Z,12432.00
2018-06-09T07:00:15.901Z,12716.00
2018-06-09T07:01:16.095Z,13512.00
2018-06-09T07:02:16.334Z,12500.00
2018-06-09T07:03:16.468Z,12724.00
2018-06-09T07:04:16.667Z,12984.00
2018-06-09T07:05:16.859Z,13488.00
2018-06-09T07:06:17.053Z,12744.00
2018-06-09T07:07:17.250Z,12776.00
2018-06-09T07:08:17.441Z,13336.00
2018-06-09T07:09:17.635Z,13980.00
2018-06-09T07:10:17.822Z,15100.00
2018-06-09T07:11:18.021Z,17664.00
2018-06-09T07:12:18.205Z,28896.00
2018-06-09T07:13:18.411Z,38848.00
2018-06-09T07:14:18.605Z,55104.00
2018-06-09T07:15:18.795Z,40384.00
2018-06-09T07:16:18.997Z,31680.00
2018-06-09T07:17:19.202Z,25984.00
2018-06-09T07:18:19.435Z,26688.00
2018-06-09T07:19:19.599Z,26912.00
2018-06-09T07:20:19.812Z,34624.00
2018-06-09T07:21:19.996Z,44736.00
2018-06-09T07:22:20.187Z,48256.00
2018-06-09T07:23:20.382Z,45056.00
2018-06-09T07:24:20.576Z,51520.00
2018-06-09T07:25:20.775Z,48992.00
2018-06-09T07:26:20.966Z,42592.00
2018-06-09T07:27:21.166Z,39328.00
2018-06-09T07:28:21.352Z,29760.00
2018-06-09T07:29:21.555Z,21568.00
2018-06-09T07:30:21.760Z,17888.00
2018-06-09T07:31:21.918Z,15776.00
2018-06-09T07:32:22.134Z,13956.00
2018-06-09T07:33:22.311Z,12924.00
2018-06-09T07:34:22.510Z,12512.00
2018-06-09T07:35:22.731Z,12368.00
2018-06-09T07:36:22.861Z,11828.00
2018-06-09T07:37:23.049Z,12084.00
2018-06-09T07:38:23.207Z,13440.00
2018-06-09T07:39:23.395Z,16704.00
2018-06-09T07:40:23.593Z,26816.00
2018-06-09T07:41:23.802Z,39296.00
2018-06-09T07:42:23.966Z,47360.00
2018-06-09T07:43:24.171Z,46752.00
2018-06-09T07:44:24.349Z,58496.00
2018-06-09T07:45:24.522Z,50048.00
2018-06-09T07:46:24.721Z,76864.00
2018-06-09T07:47:24.893Z,78144.00
2018-06-09T07:48:25.090Z,76512.00
2018-06-09T07:49:25.266Z,76672.00
2018-06-09T07:50:25.497Z,78624.00
2018-06-09T07:51:25.646Z,80192.00
2018-06-09T07:52:25.846Z,79168.00
2018-06-09T07:53:26.027Z,79488.00
2018-06-09T07:54:26.230Z,79392.00
2018-06-09T07:55:26.431Z,77376.00
2018-06-09T07:56:26.630Z,75104.00
2018-06-09T07:57:26.828Z,72064.00
2018-06-09T07:58:27.035Z,71296.00
2018-06-09T07:59:27.221Z,71584.00
2018-06-09T08:00:27.397Z,72064.00
2018-06-09T08:01:27.588Z,72096.00
2018-06-09T08:02:27.807Z,70464.00
2018-06-09T08:03:28.015Z,66688.00
2018-06-09T08:04:28.214Z,57024.00
2018-06-09T08:05:28.379Z,41888.00
2018-06-09T08:06:28.578Z,27456.00
2018-06-09T08:07:28.772Z,23008.00
2018-06-09T08:08:28.972Z,23264.00
2018-06-09T08:09:29.148Z,24704.00
2018-06-09T08:10:29.365Z,27776.00
2018-06-09T08:11:29.535Z,29504.00
2018-06-09T08:12:29.737Z,31424.00
2018-06-09T08:13:29.921Z,42720.00
2018-06-09T08:14:30.131Z,49184.00
2018-06-09T08:15:30.341Z,42272.00
2018-06-09T08:16:30.508Z,33216.00
2018-06-09T08:17:30.721Z,27264.00
2018-06-09T08:18:30.908Z,23616.00
2018-06-09T08:19:31.127Z,22144.00
2018-06-09T08:20:31.266Z,20448.00
2018-06-09T08:21:31.490Z,20512.00
2018-06-09T08:22:31.665Z,20864.00
2018-06-09T08:23:31.872Z,21184.00
2018-06-09T08:24:32.097Z,21856.00
2018-06-09T08:25:32.271Z,21408.00
2018-06-09T08:26:32.431Z,20224.00
2018-06-09T08:27:32.643Z,19648.00
2018-06-09T08:28:32.817Z,19104.00
2018-06-09T08:29:33.009Z,18560.00
2018-06-09T08:30:33.287Z,19616.00
2018-06-09T08:31:33.411Z,13748.00
2018-06-09T08:32:33.605Z,18368.00
2018-06-09T08:33:33.820Z,17184.00
2018-06-09T08:34:33.997Z,16000.00
2018-06-09T08:35:34.193Z,13532.00
2018-06-09T08:36:34.393Z,11952.00
2018-06-09T08:37:34.593Z,12108.00
2018-06-09T08:38:34.786Z,12008.00
2018-06-09T08:39:35.017Z,10924.00
2018-06-09T08:40:35.180Z,9204.00
2018-06-09T08:41:35.383Z,8516.00
2018-06-09T08:42:35.580Z,8392.00
2018-06-09T08:43:35.781Z,8148.00
2018-06-09T08:44:35.975Z,7904.00
2018-06-09T08:45:36.177Z,7784.00
2018-06-09T08:46:36.375Z,7976.00
2018-06-09T08:47:36.570Z,7744.00
2018-06-09T08:48:36.795Z,7768.00
2018-06-09T08:49:36.979Z,7668.00
2018-06-09T08:50:37.123Z,7656.00
2018-06-09T08:51:37.324Z,7560.00
2018-06-09T08:52:37.530Z,7800.00
2018-06-09T08:53:37.755Z,8652.00
2018-06-09T08:54:37.972Z,8620.00
2018-06-09T08:55:38.107Z,10100.00
2018-06-09T08:56:38.299Z,9076.00
2018-06-09T08:57:38.494Z,9488.00
2018-06-09T08:58:38.709Z,9376.00
2018-06-09T09:00:24.309Z,7880.00
2018-06-09T09:01:24.432Z,8296.00
2018-06-09T09:02:24.627Z,9584.00
2018-06-09T09:03:24.894Z,12304.00
2018-06-09T09:04:25.084Z,9236.00
2018-06-09T09:05:25.241Z,9160.00
2018-06-09T09:06:25.379Z,8496.00
2018-06-09T09:07:25.594Z,15008.00
2018-06-09T09:08:25.805Z,25568.00
2018-06-09T09:09:25.994Z,30112.00
2018-06-09T09:10:26.185Z,16768.00
2018-06-09T09:11:26.381Z,16800.00
2018-06-09T09:12:26.576Z,17504.00
2018-06-09T09:13:26.779Z,12152.00
2018-06-09T09:14:27.034Z,9288.00
2018-06-09T09:15:27.141Z,13380.00
2018-06-09T09:16:27.397Z,16260.00
2018-06-09T09:17:27.562Z,7920.00
2018-06-09T09:18:27.734Z,7340.00
2018-06-09T09:19:27.938Z,6640.00
2018-06-09T09:20:28.143Z,7104.00
2018-06-09T09:21:28.320Z,6628.00
2018-06-09T09:22:28.515Z,6688.00
2018-06-09T09:23:28.706Z,7216.00
2018-06-09T09:24:28.902Z,6584.00
2018-06-09T09:25:29.127Z,6700.00
2018-06-09T09:26:29.289Z,6476.00
2018-06-09T09:27:29.528Z,6568.00
2018-06-09T09:28:29.711Z,6408.00
2018-06-09T09:29:29.926Z,6420.00
2018-06-09T09:30:30.110Z,6724.00
2018-06-09T09:31:30.292Z,6388.00
2018-06-09T09:32:30.481Z,6560.00
2018-06-09T09:33:30.675Z,6900.00
2018-06-09T09:34:30.883Z,6228.00
2018-06-09T09:35:31.046Z,7988.00
2018-06-09T09:36:31.274Z,9108.00
2018-06-09T09:37:31.442Z,8288.00
2018-06-09T09:38:31.636Z,7312.00
2018-06-09T09:39:31.833Z,7268.00
2018-06-09T09:40:32.025Z,6804.00
2018-06-09T09:41:32.222Z,6560.00
2018-06-09T09:42:32.419Z,6524.00
2018-06-09T09:43:32.618Z,6860.00
2018-06-09T09:44:32.811Z,6784.00
2018-06-09T09:45:33.019Z,7164.00
2018-06-09T09:46:33.232Z,7328.00
2018-06-09T09:47:33.411Z,6820.00
2018-06-09T09:48:33.606Z,5972.00
2018-06-09T09:49:33.793Z,5600.00
2018-06-09T09:50:33.986Z,5492.00
2018-06-09T09:51:34.186Z,5436.00
2018-06-09T09:52:34.390Z,5396.00
2018-06-09T09:53:34.569Z,5308.00
2018-06-09T09:54:34.769Z,5368.00
2018-06-09T09:55:35.662Z,5332.00
2018-06-09T09:56:35.111Z,5188.00
2018-06-09T09:57:35.308Z,5132.00
2018-06-09T09:58:35.509Z,5132.00
2018-06-09T09:59:35.714Z,5016.00
2018-06-09T10:00:35.929Z,5020.00
2018-06-09T10:01:36.087Z,4936.00
2018-06-09T10:02:36.291Z,4948.00
2018-06-09T10:03:36.512Z,4904.00
2018-06-09T10:04:36.729Z,4860.00
2018-06-09T10:05:36.861Z,4884.00
2018-06-09T10:06:37.052Z,4972.00
2018-06-09T10:07:37.250Z,4832.00
2018-06-09T10:08:37.448Z,4784.00
2018-06-09T10:09:37.647Z,4808.00
2018-06-09T10:10:37.843Z,4780.00
2018-06-09T10:11:38.046Z,4780.00
2018-06-09T10:12:38.252Z,4808.00
2018-06-09T10:13:38.425Z,4736.00
2018-06-09T10:14:38.636Z,4688.00
2018-06-09T10:15:38.825Z,4688.00
2018-06-09T10:16:39.032Z,4700.00
2018-06-09T10:17:39.206Z,4636.00
2018-06-09T10:18:39.378Z,4648.00
2018-06-09T10:19:39.576Z,4668.00
2018-06-09T10:20:39.807Z,4672.00
2018-06-09T10:21:40.003Z,4568.00
2018-06-09T10:22:40.198Z,4604.00
2018-06-09T10:23:40.377Z,4556.00
2018-06-09T10:24:40.567Z,4584.00
2018-06-09T10:25:40.762Z,4548.00
2018-06-09T10:26:40.961Z,4536.00
2018-06-09T10:27:41.157Z,4524.00
2018-06-09T10:28:41.385Z,4520.00
2018-06-09T10:29:41.529Z,4480.00
2018-06-09T10:30:41.731Z,4492.00
2018-06-09T10:31:41.917Z,4452.00
2018-06-09T10:32:42.201Z,4480.00
2018-06-09T10:33:42.326Z,4444.00
2018-06-09T10:34:42.503Z,4472.00
2018-06-09T10:35:42.689Z,4608.00
2018-06-09T10:36:42.887Z,4628.00
2018-06-09T10:37:43.079Z,4652.00
2018-06-09T10:38:43.273Z,4728.00
2018-06-09T10:39:43.517Z,4744.00
2018-06-09T10:40:43.677Z,4668.00
2018-06-09T10:41:43.841Z,4752.00
2018-06-09T10:42:44.025Z,4808.00
2018-06-09T10:43:44.224Z,4956.00
2018-06-09T10:44:44.429Z,4952.00
2018-06-09T10:45:44.619Z,5056.00
2018-06-09T10:46:44.796Z,5052.00
2018-06-09T10:47:44.989Z,4944.00
2018-06-09T10:48:45.218Z,4932.00
2018-06-09T10:49:45.372Z,5020.00
2018-06-09T10:50:45.586Z,5036.00
2018-06-09T10:51:45.760Z,5032.00
2018-06-09T10:52:45.958Z,5056.00
2018-06-09T10:53:46.145Z,5100.00
2018-06-09T10:54:46.348Z,4964.00
2018-06-09T10:55:46.556Z,4996.00
2018-06-09T10:56:46.717Z,5024.00
2018-06-09T10:57:46.927Z,5164.00
2018-06-09T10:58:47.097Z,5164.00
2018-06-09T10:59:47.293Z,5196.00
2018-06-09T11:00:47.491Z,5080.00
2018-06-09T11:01:47.692Z,5112.00
2018-06-09T11:02:47.894Z,5128.00
2018-06-09T11:03:48.095Z,5120.00
2018-06-09T11:04:48.281Z,5040.00
2018-06-09T11:05:48.479Z,5100.00
2018-06-09T11:06:48.699Z,4936.00
2018-06-09T11:07:48.913Z,5044.00
2018-06-09T11:08:49.045Z,4960.00
2018-06-09T11:09:49.273Z,4912.00
2018-06-09T11:10:49.419Z,5048.00
2018-06-09T11:11:49.624Z,5020.00
2018-06-09T11:12:49.820Z,5396.00
2018-06-09T11:13:50.003Z,5092.00
2018-06-09T11:14:50.201Z,5084.00
2018-06-09T11:15:50.444Z,4932.00
2018-06-09T11:16:50.588Z,4768.00
2018-06-09T11:17:50.780Z,4708.00
2018-06-09T11:18:50.999Z,4604.00
2018-06-09T11:19:51.176Z,4572.00
2018-06-09T11:20:51.376Z,4436.00
2018-06-09T11:21:51.571Z,4192.00
2018-06-09T11:22:51.772Z,4204.00
2018-06-09T11:23:51.964Z,4132.00
2018-06-09T11:24:52.181Z,4156.00
2018-06-09T11:25:52.352Z,4256.00
2018-06-09T11:26:52.570Z,4232.00
2018-06-09T11:27:52.768Z,4260.00
2018-06-09T11:28:52.973Z,4500.00
2018-06-09T11:29:53.131Z,4632.00
2018-06-09T11:30:53.333Z,4732.00
2018-06-09T11:31:53.524Z,4844.00
2018-06-09T11:32:53.715Z,4688.00
2018-06-09T11:33:53.906Z,4664.00
2018-06-09T11:34:54.120Z,4764.00
2018-06-09T11:35:54.305Z,4724.00
2018-06-09T11:36:54.509Z,4708.00
2018-06-09T11:37:54.734Z,4668.00
2018-06-09T11:38:54.927Z,4332.00
2018-06-09T11:39:55.153Z,4388.00
2018-06-09T11:40:55.308Z,4592.00
2018-06-09T11:41:55.500Z,4980.00
2018-06-09T11:42:55.721Z,5028.00
2018-06-09T11:43:55.889Z,4868.00
2018-06-09T11:44:56.071Z,4608.00
2018-06-09T11:45:56.264Z,4612.00
2018-06-09T11:46:56.492Z,4920.00
2018-06-09T11:47:56.633Z,5004.00
2018-06-09T11:48:56.828Z,5068.00
2018-06-09T11:49:57.073Z,5148.00
2018-06-09T11:50:57.235Z,5288.00
2018-06-09T11:51:57.409Z,5396.00
2018-06-09T11:52:57.606Z,5484.00
2018-06-09T11:53:57.796Z,5584.00
2018-06-09T11:54:58.007Z,5732.00
2018-06-09T11:55:58.198Z,5704.00
2018-06-09T11:56:58.371Z,5796.00
2018-06-09T11:57:58.548Z,5856.00
2018-06-09T11:58:58.757Z,5928.00
2018-06-09T11:59:58.937Z,5844.00
2018-06-09T12:00:59.140Z,5760.00
2018-06-09T12:01:59.354Z,5752.00
2018-06-09T12:02:59.594Z,5532.00
2018-06-09T12:03:59.732Z,5308.00
2018-06-09T12:05:00.006Z,5344.00
2018-06-09T12:06:00.132Z,5108.00
2018-06-09T12:07:00.337Z,5228.00
2018-06-09T12:08:00.536Z,4668.00
2018-06-09T12:09:00.723Z,4656.00
2018-06-09T12:10:00.915Z,4648.00
2018-06-09T12:11:01.156Z,4596.00
2018-06-09T12:12:01.328Z,4544.00
2018-06-09T12:13:01.508Z,4444.00
2018-06-09T12:14:01.705Z,4120.00
2018-06-09T12:15:01.907Z,4324.00
2018-06-09T12:16:02.090Z,4468.00
2018-06-09T12:17:02.315Z,4428.00
2018-06-09T12:18:02.465Z,4548.00
2018-06-09T12:19:02.655Z,4484.00
2018-06-09T12:20:02.845Z,4268.00